地図

経路データ

SID SEASON NUMBER BASIN SUBBASIN NAME ISO_TIME NATURE LAT LON WMO_WIND WMO_PRES WMO_AGENCY TRACK_TYPE DIST2LAND LANDFALL IFLAG USA_AGENCY USA_ATCF_ID USA_LAT USA_LON USA_RECORD USA_STATUS USA_WIND USA_PRES USA_SSHS USA_R34_NE USA_R34_SE USA_R34_SW USA_R34_NW USA_R50_NE USA_R50_SE USA_R50_SW USA_R50_NW USA_R64_NE USA_R64_SE USA_R64_SW USA_R64_NW USA_POCI USA_ROCI USA_RMW USA_EYE TOKYO_LAT TOKYO_LON TOKYO_GRADE TOKYO_WIND TOKYO_PRES TOKYO_R50_DIR TOKYO_R50_LONG TOKYO_R50_SHORT TOKYO_R30_DIR TOKYO_R30_LONG TOKYO_R30_SHORT TOKYO_LAND CMA_LAT CMA_LON CMA_CAT CMA_WIND CMA_PRES HKO_LAT HKO_LON HKO_CAT HKO_WIND HKO_PRES NEWDELHI_LAT NEWDELHI_LON NEWDELHI_GRADE NEWDELHI_WIND NEWDELHI_PRES NEWDELHI_CI NEWDELHI_DP NEWDELHI_POCI REUNION_LAT REUNION_LON REUNION_TYPE REUNION_WIND REUNION_PRES REUNION_TNUM REUNION_CI REUNION_RMW REUNION_R34_NE REUNION_R34_SE REUNION_R34_SW REUNION_R34_NW REUNION_R50_NE REUNION_R50_SE REUNION_R50_SW REUNION_R50_NW REUNION_R64_NE REUNION_R64_SE REUNION_R64_SW REUNION_R64_NW BOM_LAT BOM_LON BOM_TYPE BOM_WIND BOM_PRES BOM_TNUM BOM_CI BOM_RMW BOM_R34_NE BOM_R34_SE BOM_R34_SW BOM_R34_NW BOM_R50_NE BOM_R50_SE BOM_R50_SW BOM_R50_NW BOM_R64_NE BOM_R64_SE BOM_R64_SW BOM_R64_NW BOM_ROCI BOM_POCI BOM_EYE BOM_POS_METHOD BOM_PRES_METHOD NADI_LAT NADI_LON NADI_CAT NADI_WIND NADI_PRES WELLINGTON_LAT WELLINGTON_LON WELLINGTON_WIND WELLINGTON_PRES DS824_LAT DS824_LON DS824_STAGE DS824_WIND DS824_PRES TD9636_LAT TD9636_LON TD9636_STAGE TD9636_WIND TD9636_PRES TD9635_LAT TD9635_LON TD9635_WIND TD9635_PRES TD9635_ROCI NEUMANN_LAT NEUMANN_LON NEUMANN_CLASS NEUMANN_WIND NEUMANN_PRES MLC_LAT MLC_LON MLC_CLASS MLC_WIND MLC_PRES USA_GUST BOM_GUST BOM_GUST_PER REUNION_GUST REUNION_GUST_PER USA_SEAHGT USA_SEARAD_NE USA_SEARAD_SE USA_SEARAD_SW USA_SEARAD_NW STORM_SPEED STORM_DIR
1947279N25282 1947 77 NA NA NOT_NAMED 1947-10-05 18:00:00 ET 25.0000 -78.5000 25 hurdat_atl main 30 30 O_____________ hurdat_atl AL071947 25.0000 -78.5000 EX 25 -4 10 24
1947279N25282 1947 77 NA NA NOT_NAMED 1947-10-05 21:00:00 ET 25.4526 -78.2754 main 48 45 P_____________ AL071947 25.4526 -78.2754 EX 27 -4 10 22
1947279N25282 1947 77 NA NA NOT_NAMED 1947-10-06 00:00:00 ET 25.9000 -78.1000 30 hurdat_atl main 89 89 O_____________ hurdat_atl AL071947 25.9000 -78.1000 EX 30 -4 9 15
1947279N25282 1947 77 NA NA NOT_NAMED 1947-10-06 03:00:00 ET 26.3424 -78.0124 main 134 134 P_____________ AL071947 26.3424 -78.0124 EX 32 -4 9 5
1947279N25282 1947 77 NA NA NOT_NAMED 1947-10-06 06:00:00 ET 26.8000 -78.0000 35 hurdat_atl main 189 189 O_____________ hurdat_atl AL071947 26.8000 -78.0000 EX 35 -4 10 2
1947279N25282 1947 77 NA NA NOT_NAMED 1947-10-06 09:00:00 ET 27.2924 -78.0053 main 205 205 P_____________ AL071947 27.2924 -78.0053 EX 35 -4 10 355
1947279N25282 1947 77 NA NA NOT_NAMED 1947-10-06 12:00:00 ET 27.8000 -78.1000 35 hurdat_atl main 216 216 O_____________ hurdat_atl AL071947 27.8000 -78.1000 EX 35 -4 10 347
1947279N25282 1947 77 NA NA NOT_NAMED 1947-10-06 15:00:00 ET 28.2695 -78.2538 main 216 188 P_____________ AL071947 28.2695 -78.2538 EX 40 -4 11 336
1947279N25282 1947 77 NA NA NOT_NAMED 1947-10-06 18:00:00 ET 28.8000 -78.6000 45 hurdat_atl main 188 169 O_____________ hurdat_atl AL071947 28.8000 -78.6000 EX 45 -4 15 328
1947279N25282 1947 77 NA NA NOT_NAMED 1947-10-06 21:00:00 ET 29.5165 -79.1581 main 168 137 P_____________ AL071947 29.5165 -79.1581 EX 47 -4 19 319
1947279N25282 1947 77 NA NA NOT_NAMED 1947-10-07 00:00:00 TS 30.2000 -80.0000 50 hurdat_atl main 132 28 O_____________ hurdat_atl AL071947 30.2000 -80.0000 TS 50 0 21 305
1947279N25282 1947 77 NA NA NOT_NAMED 1947-10-07 03:00:00 TS 30.6994 -81.1397 main 28 0 P_____________ AL071947 30.6994 -81.1397 TS 50 0 21 295
1947279N25282 1947 77 NA NA NOT_NAMED 1947-10-07 04:00:00 TS 30.8000 -81.5000 50 hurdat_atl main 0 0 O_____________ hurdat_atl AL071947 30.8000 -81.5000 L TS 50 0 17 284
1947279N25282 1947 77 NA NA NOT_NAMED 1947-10-07 06:00:00 TS 30.9000 -82.1000 45 hurdat_atl main 0 0 O_____________ hurdat_atl AL071947 30.9000 -82.1000 TS 45 0 21 271
1947279N25282 1947 77 NA NA NOT_NAMED 1947-10-07 09:00:00 TS 30.8235 -83.4955 main 0 0 P_____________ AL071947 30.8235 -83.4955 TS 37 0 24 263
1947279N25282 1947 77 NA NA NOT_NAMED 1947-10-07 12:00:00 TS 30.6000 -84.9000 30 hurdat_atl main 0 0 O_____________ hurdat_atl AL071947 30.6000 -84.9000 TD 30 -1 20 260
1947279N25282 1947 77 NA NA NOT_NAMED 1947-10-07 15:00:00 TS 30.4775 -85.7728 main 0 0 P_____________ AL071947 30.4775 -85.7728 TD 30 -1 10 252
1947279N25282 1947 77 NA GM NOT_NAMED 1947-10-07 18:00:00 TS 30.3000 -86.0000 30 hurdat_atl main 0 0 O_____________ hurdat_atl AL071947 30.3000 -86.0000 TD 30 -1 7 150
1947279N25282 1947 77 NA GM NOT_NAMED 1947-10-07 21:00:00 TS 29.8993 -85.3817 main 0 0 P_____________ AL071947 29.8993 -85.3817 TD 27 -1 15 118
1947279N25282 1947 77 NA GM NOT_NAMED 1947-10-08 00:00:00 TS 29.6000 -84.5000 25 hurdat_atl main 29 29 O_____________ hurdat_atl AL071947 29.6000 -84.5000 TD 25 -1 12 102
1947279N25282 1947 77 NA GM NOT_NAMED 1947-10-08 03:00:00 TS 29.6569 -84.0683 main 29 0 P_____________ AL071947 29.6569 -84.0683 TD 25 -1 7 57
1947279N25282 1947 77 NA GM NOT_NAMED 1947-10-08 06:00:00 TS 30.0000 -83.8000 25 hurdat_atl main 0 0 O_____________ hurdat_atl AL071947 30.0000 -83.8000 TD 25 -1 10 27
1947279N25282 1947 77 NA NA NOT_NAMED 1947-10-08 09:00:00 TS 30.5324 -83.5627 main 0 0 P_____________ AL071947 30.5324 -83.5627 TD 22 -1 13 16
1947279N25282 1947 77 NA NA NOT_NAMED 1947-10-08 12:00:00 TS 31.2000 -83.4000 20 hurdat_atl main 0 0 O_____________ hurdat_atl AL071947 31.2000 -83.4000 TD 20 -1 14 10
1947279N25282 1947 77 NA NA NOT_NAMED 1947-10-08 15:00:00 TS 31.8649 -83.2847 main 0 0 P_____________ AL071947 31.8649 -83.2847 TD 20 -1 13 7
1947279N25282 1947 77 NA NA NOT_NAMED 1947-10-08 18:00:00 TS 32.5000 -83.2000 20 hurdat_atl main 0 0 O_____________ hurdat_atl AL071947 32.5000 -83.2000 TD 20 -1 12 7
1947279N25282 1947 77 NA NA NOT_NAMED 1947-10-08 21:00:00 TS 33.0599 -83.1148 main 0 0 P_____________ AL071947 33.0599 -83.1148 TD 20 -1 10 10
1947279N25282 1947 77 NA NA NOT_NAMED 1947-10-09 00:00:00 TS 33.5000 -83.0000 20 hurdat_atl main 0 0 O_____________ hurdat_atl AL071947 33.5000 -83.0000 TD 20 -1 8 19
1947279N25282 1947 77 NA NA NOT_NAMED 1947-10-09 03:00:00 TS 33.7926 -82.8202 main 0 0 P_____________ AL071947 33.7926 -82.8202 TD 20 -1 6 34
1947279N25282 1947 77 NA NA NOT_NAMED 1947-10-09 06:00:00 TS 34.0000 -82.6000 20 hurdat_atl main 0 O_____________ hurdat_atl AL071947 34.0000 -82.6000 TD 20 -1 6 41

IBTrACS Databaseについて

本データベースは、米国NOAAが公開する1842年以降の世界の熱帯低気圧のベストトラックデータアーカイブInternational Best Track Archive for Climate Stewardship (IBTrACS)を、ウェブで閲覧しやすい形式に変換したものです。

最終更新日:2021-10-21